createdAt,value
2016-07-05T00:01:50.866Z,0
2016-07-05T00:06:50.874Z,0
2016-07-05T00:11:50.847Z,0
2016-07-05T00:16:50.223Z,0
2016-07-05T00:21:50.812Z,0
2016-07-05T00:26:50.158Z,0
2016-07-05T00:31:50.773Z,0
2016-07-05T00:36:50.149Z,0
2016-07-05T00:41:50.738Z,0
2016-07-05T00:46:49.500Z,0
2016-07-05T00:51:50.075Z,0
2016-07-05T00:56:50.676Z,0
2016-07-05T01:01:50.037Z,0
2016-07-05T01:06:50.021Z,0
2016-07-05T01:11:50.603Z,0
2016-07-05T01:16:50.566Z,0
2016-07-05T01:21:49.949Z,0
2016-07-05T01:26:49.926Z,0
2016-07-05T01:31:50.520Z,0
2016-07-05T01:36:49.288Z,0
2016-07-05T01:41:50.493Z,0
2016-07-05T01:46:50.466Z,0
2016-07-05T01:51:49.842Z,0
2016-07-05T01:56:50.428Z,0
2016-07-05T02:01:50.643Z,0
2016-07-05T02:06:50.577Z,0
2016-07-05T02:11:49.750Z,0
2016-07-05T02:16:49.744Z,0
2016-07-05T02:21:50.337Z,0
2016-07-05T02:26:50.296Z,0
2016-07-05T02:31:50.283Z,0
2016-07-05T02:36:50.256Z,0
2016-07-05T02:41:49.636Z,4
2016-07-05T02:46:49.634Z,4
2016-07-05T02:51:50.217Z,8
2016-07-05T02:56:50.179Z,8
2016-07-05T03:01:50.194Z,12
2016-07-05T03:06:49.546Z,16
2016-07-05T03:11:49.542Z,32
2016-07-05T03:16:50.130Z,52
2016-07-05T03:21:50.111Z,92
2016-07-05T03:26:50.093Z,136
2016-07-05T03:31:50.079Z,176
2016-07-05T03:36:49.438Z,276
2016-07-05T03:41:50.022Z,380
2016-07-05T03:46:49.406Z,448
2016-07-05T03:51:49.370Z,500
2016-07-05T03:56:49.979Z,592
2016-07-05T04:01:49.376Z,776
2016-07-05T04:06:49.346Z,1120
2016-07-05T04:11:49.318Z,1496
2016-07-05T04:16:49.321Z,1980
2016-07-05T04:21:49.293Z,1868
2016-07-05T04:26:49.287Z,2100
2016-07-05T04:31:49.244Z,2204
2016-07-05T04:36:49.827Z,3092
2016-07-05T04:41:49.818Z,3936
2016-07-05T04:46:49.824Z,5472
2016-07-05T04:51:49.202Z,5796
2016-07-05T04:56:49.194Z,5152
2016-07-05T05:01:49.792Z,4180
2016-07-05T05:06:49.169Z,5624
2016-07-05T05:11:49.764Z,7388
2016-07-05T05:16:48.563Z,8940
2016-07-05T05:21:49.776Z,9664
2016-07-05T05:26:49.170Z,8208
2016-07-05T05:31:49.155Z,6484
2016-07-05T05:36:49.167Z,6068
2016-07-05T05:41:49.171Z,2496
2016-07-05T05:46:49.768Z,2192
2016-07-05T05:51:49.873Z,2080
2016-07-05T05:56:49.770Z,1912
2016-07-05T06:01:49.154Z,2260
2016-07-05T06:06:49.773Z,2452
2016-07-05T06:11:49.152Z,2676
2016-07-05T06:16:48.533Z,2748
2016-07-05T06:21:49.768Z,2380
2016-07-05T06:26:49.118Z,2884
2016-07-05T06:31:49.120Z,3624
2016-07-05T06:36:49.728Z,4040
2016-07-05T06:41:49.705Z,3820
2016-07-05T06:46:49.700Z,3248
2016-07-05T06:51:49.703Z,4584
2016-07-05T06:56:49.691Z,6188
2016-07-05T07:01:49.099Z,3920
2016-07-05T07:06:49.087Z,3784
2016-07-05T07:11:49.708Z,3080
2016-07-05T07:16:48.471Z,2724
2016-07-05T07:21:49.078Z,3660
2016-07-05T07:26:49.072Z,3640
2016-07-05T07:31:49.080Z,2252
2016-07-05T07:36:49.097Z,2732
2016-07-05T07:41:49.099Z,2380
2016-07-05T07:46:49.702Z,2364
2016-07-05T07:51:48.486Z,3276
2016-07-05T07:56:49.087Z,2600
